Time;durP1;ratioP1;P1;durP2;ratioP2;P2;SDS_P1;SDS_P2;PMS_P1;PMS_P2;Temp;Humidity;BMP_temperature;BMP_pressure;BME280_temperature;BME280_humidity;BME280_pressure;Samples;Min_cycle;Max_cycle;Signal;HPM_P1;HPM_P2
2021/04/28 00:02:20;;;;;;;30.38;20.73;;;;;;;;;;5057351;28;20025;-85
2021/04/28 00:04:46;;;;;;;27.08;19.75;;;;;;;;;;5057144;28;20049;-86
2021/04/28 00:07:12;;;;;;;30.48;20.92;;;;;;;;;;5057503;28;20039;-85
2021/04/28 00:09:38;;;;;;;32.15;19.70;;;;;;;;;;5057537;28;20033;-86
2021/04/28 00:12:04;;;;;;;27.48;20.30;;;;;;;;;;5057421;28;20416;-85
2021/04/28 00:14:31;;;;;;;30.85;20.25;;;;;;;;;;5057213;28;20120;-85
2021/04/28 00:16:58;;;;;;;29.25;19.77;;;;;;;;;;5056343;28;20120;-85
2021/04/28 00:19:24;;;;;;;28.33;21.63;;;;;;;;;;5056181;28;20036;-85
2021/04/28 00:24:53;;;;;;;31.48;21.08;;;;;;;;;;5057324;28;20028;-85
2021/04/28 00:27:19;;;;;;;31.40;21.67;;;;;;;;;;5057095;28;20021;-85
2021/04/28 00:29:45;;;;;;;31.33;21.92;;;;;;;;;;5057181;28;20037;-84
2021/04/28 00:32:11;;;;;;;31.52;23.40;;;;;;;;;;5056521;28;20036;-85
2021/04/28 00:34:37;;;;;;;28.45;21.83;;;;;;;;;;5056954;28;20119;-86
2021/04/28 00:40:26;;;;;;;33.00;22.15;;;;;;;;;;5057027;28;20044;-87
2021/04/28 00:42:52;;;;;;;26.50;20.40;;;;;;;;;;5056936;28;20339;-89
2021/04/28 00:45:19;;;;;;;25.00;19.20;;;;;;;;;;5056921;28;20025;-88
2021/04/28 00:47:45;;;;;;;25.60;18.95;;;;;;;;;;5057339;28;20025;-87
2021/04/28 00:50:13;;;;;;;28.20;21.05;;;;;;;;;;5057247;28;20025;-85
2021/04/28 00:52:58;;;;;;;28.73;20.80;;;;;;;;;;5056052;28;20053;-85
2021/04/28 00:55:25;;;;;;;27.92;19.75;;;;;;;;;;5056872;28;20465;-85
2021/04/28 00:57:52;;;;;;;26.02;19.58;;;;;;;;;;5058023;28;20098;-85
2021/04/28 01:00:18;;;;;;;28.92;20.35;;;;;;;;;;5059405;28;20079;-86
2021/04/28 01:02:45;;;;;;;26.30;19.33;;;;;;;;;;5059876;28;20017;-85
2021/04/28 01:05:12;;;;;;;28.02;20.02;;;;;;;;;;5059537;28;20025;-86
2021/04/28 01:07:39;;;;;;;28.08;19.95;;;;;;;;;;5060263;28;20406;-87
2021/04/28 01:10:06;;;;;;;29.73;20.30;;;;;;;;;;5060084;28;20032;-87
2021/04/28 01:12:32;;;;;;;27.90;20.67;;;;;;;;;;5060634;28;20036;-85
2021/04/28 01:14:59;;;;;;;31.70;21.88;;;;;;;;;;5060545;28;20314;-86
2021/04/28 01:17:25;;;;;;;29.27;22.08;;;;;;;;;;5059193;28;20032;-86
2021/04/28 01:19:51;;;;;;;30.52;21.55;;;;;;;;;;5060313;28;20033;-86
2021/04/28 01:22:18;;;;;;;31.65;22.25;;;;;;;;;;5060032;28;20353;-87
2021/04/28 01:24:44;;;;;;;30.75;21.60;;;;;;;;;;5060441;28;20029;-87
2021/04/28 01:27:15;;;;;;;27.50;20.95;;;;;;;;;;5059933;28;20407;-86
2021/04/28 01:29:42;;;;;;;28.88;21.10;;;;;;;;;;5059851;28;20472;-88
2021/04/28 01:32:08;;;;;;;30.05;21.13;;;;;;;;;;5060380;28;20434;-89
2021/04/28 01:34:37;;;;;;;28.38;20.00;;;;;;;;;;5059128;28;20036;-89
2021/04/28 01:37:40;;;;;;;31.77;21.65;;;;;;;;;;5059993;28;20028;-90
2021/04/28 01:40:06;;;;;;;27.92;20.33;;;;;;;;;;5059684;28;20112;-90
2021/04/28 01:42:33;;;;;;;26.83;20.13;;;;;;;;;;5060066;28;20017;-91
2021/04/28 01:44:59;;;;;;;30.45;20.60;;;;;;;;;;5059726;28;20474;-91
2021/04/28 01:47:25;;;;;;;29.17;21.30;;;;;;;;;;5059836;28;20029;-91
2021/04/28 01:49:52;;;;;;;30.60;21.73;;;;;;;;;;5058775;28;20029;-91
2021/04/28 01:52:19;;;;;;;28.15;21.13;;;;;;;;;;5059808;28;20021;-91
2021/04/28 01:54:46;;;;;;;30.25;20.52;;;;;;;;;;5059849;28;20132;-89
2021/04/28 01:57:13;;;;;;;30.80;21.63;;;;;;;;;;5059508;28;20060;-88
2021/04/28 01:59:39;;;;;;;28.40;20.52;;;;;;;;;;5059217;28;20049;-87
2021/04/28 02:02:05;;;;;;;25.17;19.33;;;;;;;;;;5059610;28;20025;-87
2021/04/28 02:04:32;;;;;;;28.10;20.75;;;;;;;;;;5059297;28;20399;-88
2021/04/28 02:06:58;;;;;;;26.98;19.30;;;;;;;;;;5058348;28;20484;-87
2021/04/28 02:09:24;;;;;;;29.10;20.67;;;;;;;;;;5059166;28;20021;-87
2021/04/28 02:11:50;;;;;;;28.08;21.00;;;;;;;;;;5059204;28;20052;-87
2021/04/28 02:14:17;;;;;;;29.40;21.27;;;;;;;;;;5059448;28;20096;-87
2021/04/28 02:16:44;;;;;;;29.80;21.40;;;;;;;;;;5059212;28;20044;-87
2021/04/28 02:19:12;;;;;;;34.95;21.30;;;;;;;;;;5059340;28;20139;-88
2021/04/28 02:22:15;;;;;;;31.00;22.58;;;;;;;;;;5059250;28;20430;-88
2021/04/28 02:24:42;;;;;;;29.60;21.33;;;;;;;;;;5058893;28;20021;-87
2021/04/28 02:27:08;;;;;;;30.95;22.27;;;;;;;;;;5059099;28;20040;-88
2021/04/28 02:29:34;;;;;;;28.10;21.42;;;;;;;;;;5059163;28;20116;-90
2021/04/28 02:32:00;;;;;;;29.65;21.92;;;;;;;;;;5059060;28;20032;-88
2021/04/28 02:34:27;;;;;;;32.85;21.95;;;;;;;;;;5059065;28;20021;-91
2021/04/28 02:37:11;;;;;;;31.23;21.77;;;;;;;;;;5057990;28;20025;-90
2021/04/28 02:39:46;;;;;;;30.77;23.17;;;;;;;;;;5057771;28;20062;-91
2021/04/28 02:42:12;;;;;;;32.65;22.98;;;;;;;;;;5058811;28;20021;-92
2021/04/28 02:44:39;;;;;;;32.22;22.15;;;;;;;;;;5058821;28;20051;-88
2021/04/28 02:47:06;;;;;;;31.23;21.65;;;;;;;;;;5058812;28;20025;-87
2021/04/28 02:49:32;;;;;;;28.05;21.33;;;;;;;;;;5058784;28;20112;-88
2021/04/28 02:55:03;;;;;;;28.35;20.30;;;;;;;;;;5058632;28;20028;-88
2021/04/28 02:57:29;;;;;;;31.17;20.08;;;;;;;;;;5057680;28;20031;-87
2021/04/28 02:59:55;;;;;;;28.98;20.15;;;;;;;;;;5058030;28;20045;-89
2021/04/28 03:02:22;;;;;;;26.67;20.00;;;;;;;;;;5058494;28;20036;-89
2021/04/28 03:04:49;;;;;;;27.20;20.25;;;;;;;;;;5057346;28;20025;-89
2021/04/28 03:07:16;;;;;;;27.13;19.05;;;;;;;;;;5058335;28;20028;-89
2021/04/28 03:09:42;;;;;;;29.98;20.13;;;;;;;;;;5058053;28;20021;-89
2021/04/28 03:12:09;;;;;;;28.73;19.75;;;;;;;;;;5058326;28;20056;-88
2021/04/28 03:14:35;;;;;;;29.45;20.88;;;;;;;;;;5058105;28;20029;-89
2021/04/28 03:17:02;;;;;;;25.48;19.67;;;;;;;;;;5058052;28;20402;-87
2021/04/28 03:19:28;;;;;;;29.85;20.65;;;;;;;;;;5057869;28;20060;-88
2021/04/28 03:22:15;;;;;;;29.25;20.23;;;;;;;;;;5056943;28;20021;-88
2021/04/28 03:24:41;;;;;;;29.60;21.90;;;;;;;;;;5058177;28;20017;-88
2021/04/28 03:27:08;;;;;;;28.00;21.70;;;;;;;;;;5056949;28;20063;-86
2021/04/28 03:29:35;;;;;;;28.08;20.00;;;;;;;;;;5057872;28;20083;-85
2021/04/28 03:32:01;;;;;;;28.90;21.48;;;;;;;;;;5057777;28;20124;-87
2021/04/28 03:34:27;;;;;;;32.47;22.70;;;;;;;;;;5058035;28;20461;-88
2021/04/28 03:36:53;;;;;;;30.70;21.50;;;;;;;;;;5056762;28;20430;-87
2021/04/28 03:39:19;;;;;;;31.08;21.90;;;;;;;;;;5057854;28;20021;-89
2021/04/28 03:41:45;;;;;;;36.40;23.75;;;;;;;;;;5057909;28;20021;-87
2021/04/28 03:44:11;;;;;;;36.80;24.15;;;;;;;;;;5056703;28;20062;-88
2021/04/28 03:46:38;;;;;;;33.80;21.35;;;;;;;;;;5057882;28;20017;-87
2021/04/28 03:49:04;;;;;;;34.58;23.52;;;;;;;;;;5057481;28;20029;-86
2021/04/28 03:51:30;;;;;;;34.63;22.52;;;;;;;;;;5057504;28;20032;-86
2021/04/28 03:53:56;;;;;;;31.20;21.08;;;;;;;;;;5057469;28;20032;-88
2021/04/28 03:56:26;;;;;;;30.80;21.60;;;;;;;;;;5057500;28;20044;-87
2021/04/28 03:58:52;;;;;;;32.22;21.70;;;;;;;;;;5057793;28;20123;-89
2021/04/28 04:01:18;;;;;;;32.20;22.42;;;;;;;;;;5057164;28;20044;-89
2021/04/28 04:03:45;;;;;;;29.67;21.55;;;;;;;;;;5057308;28;20024;-87
2021/04/28 04:06:11;;;;;;;30.50;22.05;;;;;;;;;;5057307;28;20017;-87
2021/04/28 04:11:41;;;;;;;27.00;20.10;;;;;;;;;;5057503;28;20127;-88
2021/04/28 04:14:07;;;;;;;27.80;20.48;;;;;;;;;;5056584;28;20037;-90
2021/04/28 04:16:33;;;;;;;28.45;19.55;;;;;;;;;;5056451;28;20319;-91
2021/04/28 04:18:59;;;;;;;25.80;18.75;;;;;;;;;;5057766;28;20024;-90
2021/04/28 04:21:25;;;;;;;25.58;18.13;;;;;;;;;;5056142;28;20056;-88
2021/04/28 04:26:55;;;;;;;29.42;18.52;;;;;;;;;;5057448;28;20032;-89
2021/04/28 04:29:21;;;;;;;21.92;14.23;;;;;;;;;;5057205;28;20102;-89
2021/04/28 04:31:47;;;;;;;26.42;15.43;;;;;;;;;;5048411;28;20100;-87
2021/04/28 04:34:13;;;;;;;21.98;12.90;;;;;;;;;;5040789;28;20028;-90
2021/04/28 04:36:39;;;;;;;18.73;12.90;;;;;;;;;;5040360;28;20301;-92
2021/04/28 04:42:11;;;;;;;19.35;11.98;;;;;;;;;;5041133;28;20047;-88
2021/04/28 04:44:37;;;;;;;17.45;11.88;;;;;;;;;;5041165;28;20045;-89
2021/04/28 04:47:03;;;;;;;15.73;12.00;;;;;;;;;;5041194;28;20319;-88
2021/04/28 04:49:29;;;;;;;17.92;11.88;;;;;;;;;;5041097;28;20067;-90
2021/04/28 04:58:03;;;;;;;18.42;11.73;;;;;;;;;;5041024;28;20037;-90
2021/04/28 05:00:29;;;;;;;16.33;12.40;;;;;;;;;;5040361;28;20046;-90
2021/04/28 05:02:55;;;;;;;17.40;12.75;;;;;;;;;;5039820;28;20418;-92
2021/04/28 05:05:21;;;;;;;18.25;12.32;;;;;;;;;;5039599;28;20028;-93
2021/04/28 05:07:47;;;;;;;18.52;11.98;;;;;;;;;;5040726;28;20017;-90
2021/04/28 05:10:14;;;;;;;15.60;11.60;;;;;;;;;;5040617;28;20029;-92
2021/04/28 05:12:41;;;;;;;18.15;12.95;;;;;;;;;;5040653;28;20029;-94
2021/04/28 05:15:08;;;;;;;18.30;12.75;;;;;;;;;;5040755;28;20068;-91
2021/04/28 05:17:34;;;;;;;17.80;12.52;;;;;;;;;;5039376;28;20112;-89
2021/04/28 05:20:00;;;;;;;18.33;12.90;;;;;;;;;;5039453;28;20057;-88
2021/04/28 05:28:33;;;;;;;18.50;13.25;;;;;;;;;;5039945;28;20032;-87
2021/04/28 05:30:59;;;;;;;20.13;13.25;;;;;;;;;;5040328;28;20049;-90
2021/04/28 05:33:25;;;;;;;19.13;14.52;;;;;;;;;;5039258;28;20402;-89
2021/04/28 05:35:51;;;;;;;19.10;13.50;;;;;;;;;;5039096;28;20030;-87
2021/04/28 05:38:18;;;;;;;18.13;14.15;;;;;;;;;;5039732;28;20029;-87
2021/04/28 05:40:44;;;;;;;19.20;13.50;;;;;;;;;;5039822;28;20072;-85
2021/04/28 05:43:10;;;;;;;20.65;13.85;;;;;;;;;;5039759;28;20030;-87
2021/04/28 05:45:43;;;;;;;19.25;14.38;;;;;;;;;;5038886;28;20021;-86
2021/04/28 05:48:13;;;;;;;21.27;14.48;;;;;;;;;;5039235;28;20332;-90
2021/04/28 05:50:40;;;;;;;24.33;15.23;;;;;;;;;;5038869;28;20052;-88
2021/04/28 05:59:17;;;;;;;21.80;16.15;;;;;;;;;;5037492;28;20103;-89
2021/04/28 06:01:43;;;;;;;20.10;15.82;;;;;;;;;;5039967;28;20339;-92
2021/04/28 06:04:09;;;;;;;25.80;18.20;;;;;;;;;;5039641;28;20096;-90
2021/04/28 06:06:35;;;;;;;21.30;15.80;;;;;;;;;;5041177;28;20029;-90
2021/04/28 06:09:01;;;;;;;25.20;18.98;;;;;;;;;;5040077;28;20077;-90
2021/04/28 06:11:27;;;;;;;27.88;19.20;;;;;;;;;;5040011;28;20025;-88
2021/04/28 06:13:53;;;;;;;24.80;18.05;;;;;;;;;;5047156;28;20079;-88
2021/04/28 06:16:19;;;;;;;26.98;19.88;;;;;;;;;;5058718;28;20051;-91
2021/04/28 06:18:46;;;;;;;32.90;20.13;;;;;;;;;;5059420;28;20032;-90
2021/04/28 06:21:12;;;;;;;29.58;19.08;;;;;;;;;;5059114;28;20029;-89
2021/04/28 06:23:38;;;;;;;33.00;22.30;;;;;;;;;;5053481;28;20144;-88
2021/04/28 06:26:05;;;;;;;31.63;20.98;;;;;;;;;;5039261;28;20022;-90
2021/04/28 06:28:31;;;;;;;27.42;19.88;;;;;;;;;;5038798;28;20022;-92
2021/04/28 06:30:57;;;;;;;38.53;26.48;;;;;;;;;;5038038;28;20040;-90
2021/04/28 06:33:24;;;;;;;32.90;24.27;;;;;;;;;;5039145;28;20048;-90
2021/04/28 06:35:50;;;;;;;32.30;23.15;;;;;;;;;;5039180;28;20426;-88
2021/04/28 06:41:42;;;;;;;45.83;27.60;;;;;;;;;;5038950;28;20044;-90
2021/04/28 06:44:09;;;;;;;36.60;24.50;;;;;;;;;;5049500;28;20025;-89
2021/04/28 06:46:35;;;;;;;33.03;24.15;;;;;;;;;;5057561;28;20029;-90
2021/04/28 06:49:01;;;;;;;31.42;23.70;;;;;;;;;;5058292;28;20108;-89
2021/04/28 06:51:27;;;;;;;31.33;23.27;;;;;;;;;;5058235;28;20033;-77
2021/04/28 06:53:53;;;;;;;27.55;21.48;;;;;;;;;;5057647;28;20053;-78
2021/04/28 06:56:19;;;;;;;30.98;22.55;;;;;;;;;;5057213;28;20718;-77
2021/04/28 06:58:46;;;;;;;29.05;22.15;;;;;;;;;;5057373;28;20040;-78
2021/04/28 07:01:13;;;;;;;32.05;23.33;;;;;;;;;;5057549;28;20129;-78
2021/04/28 07:03:39;;;;;;;33.17;23.83;;;;;;;;;;5057571;28;20021;-78
2021/04/28 07:06:07;;;;;;;28.40;23.13;;;;;;;;;;5057532;28;20025;-78
2021/04/28 07:08:33;;;;;;;32.08;23.45;;;;;;;;;;5057526;28;20021;-78
2021/04/28 07:11:00;;;;;;;33.85;23.52;;;;;;;;;;5057482;28;20033;-79
2021/04/28 07:13:26;;;;;;;30.70;23.52;;;;;;;;;;5057209;28;20035;-78
2021/04/28 07:15:52;;;;;;;33.03;25.58;;;;;;;;;;5057379;28;20327;-78
2021/04/28 07:18:19;;;;;;;30.13;24.80;;;;;;;;;;5057663;28;20037;-78
2021/04/28 07:20:46;;;;;;;30.40;24.40;;;;;;;;;;5056209;28;20028;-77
2021/04/28 07:23:12;;;;;;;30.67;24.20;;;;;;;;;;5057172;28;20029;-79
2021/04/28 07:25:38;;;;;;;33.83;25.00;;;;;;;;;;5057210;28;20049;-78
2021/04/28 07:28:04;;;;;;;32.58;25.52;;;;;;;;;;5057263;28;20315;-79
2021/04/28 07:30:30;;;;;;;33.33;25.83;;;;;;;;;;5055695;28;20411;-78
2021/04/28 07:32:56;;;;;;;33.75;26.80;;;;;;;;;;5057269;28;20041;-78
2021/04/28 07:35:22;;;;;;;34.10;26.75;;;;;;;;;;5057600;28;20112;-78
2021/04/28 07:37:49;;;;;;;33.63;27.00;;;;;;;;;;5056916;28;20060;-78
2021/04/28 07:40:16;;;;;;;34.25;27.15;;;;;;;;;;5057140;28;20025;-78
2021/04/28 07:42:42;;;;;;;32.53;26.05;;;;;;;;;;5057069;28;20513;-78
2021/04/28 07:45:09;;;;;;;34.38;26.48;;;;;;;;;;5056886;28;20071;-78
2021/04/28 07:47:35;;;;;;;34.15;26.38;;;;;;;;;;5055889;28;20120;-78
2021/04/28 07:50:01;;;;;;;33.80;26.45;;;;;;;;;;5056985;28;20028;-78
2021/04/28 07:52:27;;;;;;;30.75;26.13;;;;;;;;;;5056796;28;20472;-78
2021/04/28 07:54:53;;;;;;;35.28;26.40;;;;;;;;;;5056949;28;20502;-78
2021/04/28 07:57:19;;;;;;;36.80;27.02;;;;;;;;;;5056527;28;20053;-78
2021/04/28 07:59:45;;;;;;;34.13;25.80;;;;;;;;;;5056484;28;20049;-77
2021/04/28 08:02:13;;;;;;;35.95;27.88;;;;;;;;;;5056788;28;20465;-78
2021/04/28 08:04:39;;;;;;;38.08;27.90;;;;;;;;;;5056949;28;20173;-78
2021/04/28 08:07:06;;;;;;;37.83;28.08;;;;;;;;;;5059497;28;20028;-79
2021/04/28 08:09:33;;;;;;;36.85;28.50;;;;;;;;;;5061106;28;20055;-85
2021/04/28 08:12:00;;;;;;;35.53;27.40;;;;;;;;;;5060812;28;20025;-78
2021/04/28 08:14:26;;;;;;;36.10;26.17;;;;;;;;;;5060983;28;20017;-82
2021/04/28 08:16:52;;;;;;;35.13;26.27;;;;;;;;;;5060799;28;20031;-78
2021/04/28 08:19:18;;;;;;;40.90;25.90;;;;;;;;;;5059769;28;20033;-77
2021/04/28 08:21:44;;;;;;;32.45;24.90;;;;;;;;;;5060611;28;20032;-78
2021/04/28 08:24:10;;;;;;;32.67;24.58;;;;;;;;;;5059759;28;20427;-78
2021/04/28 08:26:36;;;;;;;31.45;23.65;;;;;;;;;;5059537;28;20029;-78
2021/04/28 08:29:02;;;;;;;31.98;23.38;;;;;;;;;;5059621;28;20033;-78
2021/04/28 08:31:28;;;;;;;27.90;21.23;;;;;;;;;;5060586;28;20064;-78
2021/04/28 08:33:54;;;;;;;28.55;20.00;;;;;;;;;;5060375;28;20100;-77
2021/04/28 08:36:20;;;;;;;24.00;18.00;;;;;;;;;;5060344;28;20108;-78
2021/04/28 08:38:46;;;;;;;19.45;14.50;;;;;;;;;;5059619;28;20358;-78
2021/04/28 08:41:13;;;;;;;16.67;13.40;;;;;;;;;;5060470;28;20056;-78
2021/04/28 08:43:39;;;;;;;19.10;13.95;;;;;;;;;;5060451;28;20143;-78
2021/04/28 08:46:06;;;;;;;17.90;12.38;;;;;;;;;;5060238;28;20025;-78
2021/04/28 08:48:32;;;;;;;14.60;11.68;;;;;;;;;;5060242;28;20025;-78
2021/04/28 08:50:59;;;;;;;13.27;10.95;;;;;;;;;;5060147;28;20036;-78
2021/04/28 08:53:28;;;;;;;16.52;12.13;;;;;;;;;;5060019;28;20021;-78
2021/04/28 08:55:54;;;;;;;17.48;13.00;;;;;;;;;;5060332;28;20035;-78
2021/04/28 08:58:21;;;;;;;29.13;19.80;;;;;;;;;;5060007;28;20021;-78
2021/04/28 09:00:47;;;;;;;22.77;17.38;;;;;;;;;;5059799;28;20335;-78
2021/04/28 09:03:16;;;;;;;18.33;14.75;;;;;;;;;;5059957;28;20395;-78
2021/04/28 09:05:43;;;;;;;20.13;14.35;;;;;;;;;;5059874;28;20032;-78
2021/04/28 09:08:10;;;;;;;18.25;14.73;;;;;;;;;;5059783;28;20028;-78
2021/04/28 09:10:36;;;;;;;16.35;12.38;;;;;;;;;;5058826;28;20056;-78
2021/04/28 09:13:04;;;;;;;18.05;12.48;;;;;;;;;;5059722;28;20060;-78
2021/04/28 09:15:30;;;;;;;16.77;11.88;;;;;;;;;;5059615;28;20104;-78
2021/04/28 09:17:56;;;;;;;18.17;12.95;;;;;;;;;;5058926;28;20091;-78
2021/04/28 09:20:38;;;;;;;16.13;12.05;;;;;;;;;;5058498;28;20028;-79
2021/04/28 09:23:09;;;;;;;18.88;14.57;;;;;;;;;;5040003;28;20029;-78
2021/04/28 09:25:46;;;;;;;20.60;13.68;;;;;;;;;;5039698;28;20041;-78
2021/04/28 09:28:27;;;;;;;16.80;12.80;;;;;;;;;;5039498;28;20021;-78
2021/04/28 09:31:06;;;;;;;20.38;13.05;;;;;;;;;;5039430;28;20029;-78
2021/04/28 09:33:33;;;;;;;18.65;13.07;;;;;;;;;;5039544;28;20040;-78
2021/04/28 09:35:59;;;;;;;20.98;14.40;;;;;;;;;;5038879;28;20419;-78
2021/04/28 09:38:25;;;;;;;29.58;18.50;;;;;;;;;;5041885;28;20070;-78
2021/04/28 09:40:56;;;;;;;44.17;28.73;;;;;;;;;;5048063;28;20036;-78
2021/04/28 09:43:22;;;;;;;24.17;15.52;;;;;;;;;;5039514;28;20075;-84
2021/04/28 09:45:52;;;;;;;17.38;12.43;;;;;;;;;;5040008;28;20025;-82
2021/04/28 09:48:19;;;;;;;23.27;17.30;;;;;;;;;;5038264;28;20320;-83
2021/04/28 09:50:46;;;;;;;19.83;15.07;;;;;;;;;;5039349;28;20033;-83
2021/04/28 09:53:25;;;;;;;15.93;12.52;;;;;;;;;;5038506;28;20108;-83
2021/04/28 09:55:51;;;;;;;19.05;13.82;;;;;;;;;;5039308;28;20068;-83
2021/04/28 09:58:17;;;;;;;19.20;14.43;;;;;;;;;;5038229;28;20030;-82
2021/04/28 10:00:57;;;;;;;19.13;13.75;;;;;;;;;;5038839;28;20054;-82
2021/04/28 10:03:25;;;;;;;16.70;13.63;;;;;;;;;;5039085;28;20033;-82
2021/04/28 10:05:51;;;;;;;25.23;20.15;;;;;;;;;;5038316;28;20159;-83
2021/04/28 10:08:21;;;;;;;23.35;15.40;;;;;;;;;;5038920;28;20022;-83
2021/04/28 10:10:52;;;;;;;19.13;13.80;;;;;;;;;;5038087;28;20030;-83
2021/04/28 10:13:18;;;;;;;17.38;14.20;;;;;;;;;;5038934;28;20028;-83
2021/04/28 10:15:45;;;;;;;17.42;13.75;;;;;;;;;;5037753;28;20030;-83
2021/04/28 10:18:12;;;;;;;19.77;16.40;;;;;;;;;;5037499;28;20052;-81
2021/04/28 10:20:40;;;;;;;23.90;18.40;;;;;;;;;;5038764;28;20033;-82
2021/04/28 10:23:08;;;;;;;21.63;15.18;;;;;;;;;;5038651;28;20021;-82
2021/04/28 10:25:34;;;;;;;18.15;14.15;;;;;;;;;;5038646;28;20017;-82
2021/04/28 10:28:01;;;;;;;15.75;12.98;;;;;;;;;;5038458;28;20453;-82
2021/04/28 10:30:28;;;;;;;23.85;15.18;;;;;;;;;;5036839;28;20496;-82
2021/04/28 10:32:56;;;;;;;30.77;20.13;;;;;;;;;;5038747;28;20030;-83
2021/04/28 10:35:23;;;;;;;31.58;22.05;;;;;;;;;;5037845;28;20025;-82
2021/04/28 10:37:51;;;;;;;34.38;23.63;;;;;;;;;;5038379;28;20032;-83
2021/04/28 10:40:19;;;;;;;24.50;17.48;;;;;;;;;;5038398;28;20037;-82
2021/04/28 10:42:46;;;;;;;22.52;16.60;;;;;;;;;;5038039;28;20473;-82
2021/04/28 10:45:37;;;;;;;19.83;15.38;;;;;;;;;;5036958;28;20083;-79
2021/04/28 10:48:04;;;;;;;20.15;14.45;;;;;;;;;;5038070;28;20032;-79
2021/04/28 10:50:45;;;;;;;20.13;12.93;;;;;;;;;;5037846;28;20423;-79
2021/04/28 10:53:13;;;;;;;21.33;13.82;;;;;;;;;;5037741;28;20055;-79
2021/04/28 10:55:45;;;;;;;15.15;12.60;;;;;;;;;;5038007;28;20121;-79
2021/04/28 10:58:35;;;;;;;16.13;13.20;;;;;;;;;;5037782;28;20419;-79
2021/04/28 11:01:07;;;;;;;23.58;16.20;;;;;;;;;;4996112;28;20054;-79
2021/04/28 11:03:33;;;;;;;17.88;13.40;;;;;;;;;;4996486;28;20433;-79
2021/04/28 11:06:20;;;;;;;17.98;12.20;;;;;;;;;;4996448;28;20038;-80
2021/04/28 11:09:18;;;;;;;18.02;12.80;;;;;;;;;;4996395;28;20032;-80
2021/04/28 11:11:46;;;;;;;16.73;10.70;;;;;;;;;;4957713;28;20039;-79
2021/04/28 11:17:01;;;;;;;14.07;10.95;;;;;;;;;;4957356;28;20055;-80
2021/04/28 11:19:32;;;;;;;17.25;11.27;;;;;;;;;;4941225;29;20426;-79
2021/04/28 11:22:05;;;;;;;21.63;12.15;;;;;;;;;;4957544;28;20329;-80
2021/04/28 11:24:50;;;;;;;16.63;11.70;;;;;;;;;;4941249;28;20035;-80
2021/04/28 11:27:35;;;;;;;16.63;12.68;;;;;;;;;;4957477;29;20469;-80
2021/04/28 11:30:01;;;;;;;17.30;11.50;;;;;;;;;;4941359;29;20047;-80
2021/04/28 11:32:27;;;;;;;16.20;10.98;;;;;;;;;;4957302;28;20039;-80
2021/04/28 11:34:54;;;;;;;14.75;10.95;;;;;;;;;;4957348;28;20039;-80
2021/04/28 11:37:20;;;;;;;18.25;12.93;;;;;;;;;;4961415;28;20468;-80
2021/04/28 11:39:47;;;;;;;13.90;11.07;;;;;;;;;;4976384;28;20031;-80
2021/04/28 11:42:19;;;;;;;17.48;11.77;;;;;;;;;;4976216;28;20023;-80
2021/04/28 11:44:49;;;;;;;17.63;12.75;;;;;;;;;;4976541;28;20380;-80
2021/04/28 11:47:20;;;;;;;16.42;11.77;;;;;;;;;;5005845;28;20357;-80
2021/04/28 11:49:47;;;;;;;16.98;11.13;;;;;;;;;;5037024;28;20028;-80
2021/04/28 11:52:14;;;;;;;16.40;11.77;;;;;;;;;;5035743;28;20311;-79
2021/04/28 11:54:40;;;;;;;14.40;11.02;;;;;;;;;;5037152;28;20052;-80
2021/04/28 11:57:06;;;;;;;15.35;12.65;;;;;;;;;;5037073;28;20022;-80
2021/04/28 11:59:38;;;;;;;21.05;13.85;;;;;;;;;;5036261;28;20045;-79
2021/04/28 12:02:09;;;;;;;18.38;13.60;;;;;;;;;;5036660;28;20061;-80
2021/04/28 12:04:46;;;;;;;19.90;13.98;;;;;;;;;;5036116;28;20033;-80
2021/04/28 12:07:16;;;;;;;15.90;12.20;;;;;;;;;;5036769;28;20407;-80
2021/04/28 12:09:46;;;;;;;17.70;13.15;;;;;;;;;;5037055;28;20025;-79
2021/04/28 12:12:12;;;;;;;24.67;15.15;;;;;;;;;;5036050;28;20331;-79
2021/04/28 12:14:39;;;;;;;23.23;14.98;;;;;;;;;;5036849;28;20028;-80
2021/04/28 12:17:05;;;;;;;26.85;17.30;;;;;;;;;;5036810;28;20021;-80
2021/04/28 12:19:32;;;;;;;19.88;13.98;;;;;;;;;;5036694;28;20052;-80
2021/04/28 12:22:03;;;;;;;28.52;16.80;;;;;;;;;;5035696;28;20022;-79
2021/04/28 12:24:31;;;;;;;26.27;16.70;;;;;;;;;;5036445;28;20022;-81
2021/04/28 12:27:06;;;;;;;24.52;15.68;;;;;;;;;;5054021;28;20044;-80
2021/04/28 12:29:33;;;;;;;18.38;14.25;;;;;;;;;;5055799;28;20119;-80
2021/04/28 12:31:59;;;;;;;21.42;13.95;;;;;;;;;;5056483;28;20048;-80
2021/04/28 12:34:26;;;;;;;21.25;13.18;;;;;;;;;;5056586;28;20025;-80
2021/04/28 12:36:52;;;;;;;22.48;14.15;;;;;;;;;;5056590;28;20025;-80
2021/04/28 12:39:30;;;;;;;18.75;14.23;;;;;;;;;;5056455;28;20312;-80
2021/04/28 12:41:56;;;;;;;18.02;13.13;;;;;;;;;;5056493;28;20114;-80
2021/04/28 12:44:23;;;;;;;19.25;12.63;;;;;;;;;;5056027;28;20319;-80
2021/04/28 12:46:50;;;;;;;24.52;16.20;;;;;;;;;;5056342;28;20025;-80
2021/04/28 12:49:16;;;;;;;36.22;20.52;;;;;;;;;;5055378;28;20021;-80
2021/04/28 12:51:43;;;;;;;21.73;17.13;;;;;;;;;;5056137;28;20045;-80
2021/04/28 12:54:10;;;;;;;18.45;13.38;;;;;;;;;;5059074;28;20017;-80
2021/04/28 12:56:43;;;;;;;19.48;13.35;;;;;;;;;;5060395;28;20100;-80
2021/04/28 12:59:15;;;;;;;21.20;15.48;;;;;;;;;;5059945;28;20430;-83
2021/04/28 13:01:42;;;;;;;29.65;19.08;;;;;;;;;;5059170;28;20049;-83
2021/04/28 13:04:18;;;;;;;45.10;33.63;;;;;;;;;;5060246;28;20108;-83
2021/04/28 13:06:45;;;;;;;25.63;16.90;;;;;;;;;;5059739;28;20346;-83
2021/04/28 13:09:15;;;;;;;21.33;14.07;;;;;;;;;;5059769;28;20025;-84
2021/04/28 13:11:42;;;;;;;19.58;13.63;;;;;;;;;;5060305;28;20029;-83
2021/04/28 13:14:15;;;;;;;27.70;16.98;;;;;;;;;;5059838;28;20047;-81
2021/04/28 13:16:46;;;;;;;21.05;14.95;;;;;;;;;;5059862;28;20022;-82
2021/04/28 13:19:32;;;;;;;19.52;14.73;;;;;;;;;;5059903;28;20100;-82
2021/04/28 13:21:59;;;;;;;19.10;13.13;;;;;;;;;;5059726;28;20036;-82
2021/04/28 13:24:32;;;;;;;20.25;13.20;;;;;;;;;;5058523;28;20063;-82
2021/04/28 13:26:58;;;;;;;18.00;13.50;;;;;;;;;;5059639;28;20115;-82
2021/04/28 13:29:24;;;;;;;18.85;13.55;;;;;;;;;;5059870;28;20021;-82
2021/04/28 13:31:50;;;;;;;16.92;10.32;;;;;;;;;;5059540;28;20033;-81
2021/04/28 13:34:29;;;;;;;15.35;9.57;;;;;;;;;;5058429;28;20029;-82
2021/04/28 13:36:57;;;;;;;14.65;9.93;;;;;;;;;;5059136;28;20028;-82
2021/04/28 13:39:28;;;;;;;13.10;10.32;;;;;;;;;;5058314;28;20021;-81
2021/04/28 13:41:59;;;;;;;14.88;9.93;;;;;;;;;;5059209;28;20029;-82
2021/04/28 13:44:26;;;;;;;19.00;12.05;;;;;;;;;;5059275;28;20029;-82
2021/04/28 13:46:55;;;;;;;20.23;12.90;;;;;;;;;;5059275;28;20021;-82
2021/04/28 13:49:21;;;;;;;18.73;9.93;;;;;;;;;;5058360;28;20111;-82
2021/04/28 13:51:51;;;;;;;12.98;7.50;;;;;;;;;;5058801;28;20071;-82
2021/04/28 13:54:17;;;;;;;12.85;7.03;;;;;;;;;;5058967;28;20408;-82
2021/04/28 13:56:44;;;;;;;16.88;9.48;;;;;;;;;;5059102;28;20099;-82
2021/04/28 13:59:10;;;;;;;17.77;12.13;;;;;;;;;;5058853;28;20125;-82
2021/04/28 14:01:36;;;;;;;19.40;11.60;;;;;;;;;;5058679;28;20053;-82
2021/04/28 14:04:02;;;;;;;18.15;11.80;;;;;;;;;;5057514;28;20025;-82
2021/04/28 14:06:28;;;;;;;20.08;13.63;;;;;;;;;;5058850;28;20021;-82
2021/04/28 14:08:54;;;;;;;20.63;15.55;;;;;;;;;;5058925;28;20100;-82
2021/04/28 14:11:22;;;;;;;19.88;15.18;;;;;;;;;;5058801;28;20029;-82
2021/04/28 14:13:48;;;;;;;26.35;16.48;;;;;;;;;;5058612;28;20074;-82
2021/04/28 14:16:14;;;;;;;27.98;18.95;;;;;;;;;;5058918;28;20029;-82
2021/04/28 14:18:40;;;;;;;20.67;16.00;;;;;;;;;;5058469;28;20029;-81
2021/04/28 14:21:06;;;;;;;33.97;20.65;;;;;;;;;;5057568;28;20053;-81
2021/04/28 14:23:32;;;;;;;24.35;11.27;;;;;;;;;;5058621;28;20032;-80
2021/04/28 14:25:58;;;;;;;20.52;7.85;;;;;;;;;;5058619;28;20090;-80
2021/04/28 14:28:24;;;;;;;14.68;9.27;;;;;;;;;;5058363;28;20021;-80
2021/04/28 14:30:50;;;;;;;15.60;8.90;;;;;;;;;;5058809;28;20307;-82
2021/04/28 14:33:16;;;;;;;24.73;13.90;;;;;;;;;;5058400;28;20044;-82
2021/04/28 14:35:43;;;;;;;22.70;12.82;;;;;;;;;;5058273;28;20025;-82
2021/04/28 14:38:09;;;;;;;29.25;16.00;;;;;;;;;;5058112;28;20515;-81
2021/04/28 14:40:35;;;;;;;25.52;12.40;;;;;;;;;;5058274;28;20029;-82
2021/04/28 14:43:01;;;;;;;24.60;13.25;;;;;;;;;;5058225;28;20100;-81
2021/04/28 14:45:27;;;;;;;28.50;16.15;;;;;;;;;;5057103;28;20021;-81
2021/04/28 14:47:53;;;;;;;22.95;13.55;;;;;;;;;;5058166;28;20032;-82
2021/04/28 14:50:21;;;;;;;22.15;12.73;;;;;;;;;;5057231;28;20048;-82
2021/04/28 14:52:47;;;;;;;22.73;13.68;;;;;;;;;;5057115;28;20067;-82
2021/04/28 14:55:14;;;;;;;21.75;14.73;;;;;;;;;;5054208;28;20033;-82
2021/04/28 14:57:40;;;;;;;20.17;11.35;;;;;;;;;;5057843;28;20071;-81
2021/04/28 15:00:06;;;;;;;24.05;13.32;;;;;;;;;;5057435;28;20055;-81
2021/04/28 15:02:32;;;;;;;23.13;14.70;;;;;;;;;;5057818;28;20053;-81
2021/04/28 15:04:58;;;;;;;25.15;17.98;;;;;;;;;;5057731;28;20040;-81
2021/04/28 15:07:24;;;;;;;17.23;10.70;;;;;;;;;;5057517;28;20037;-80